Time;durP1;ratioP1;P1;durP2;ratioP2;P2;SDS_P1;SDS_P2;PMS_P1;PMS_P2;Temp;Humidity;BMP_temperature;BMP_pressure;BME280_temperature;BME280_humidity;BME280_pressure;Samples;Min_cycle;Max_cycle;Signal;HPM_P1;HPM_P2
2021/05/30 07:21:50;;;;;;;5.53;2.20;;;;;;;20.15;41.45;93908.88;5023661;27;20536;-86
2021/05/30 07:24:15;;;;;;;4.10;2.03;;;;;;;20.28;41.27;93916.47;4997403;28;20042;-80
2021/05/30 07:26:42;;;;;;;18.10;2.50;;;;;;;20.54;41.13;93907.16;4993914;28;20559;-84
2021/05/30 07:29:08;;;;;;;4.03;2.45;;;;;;;20.83;39.55;93912.06;4994714;28;20506;-88
2021/05/30 07:31:34;;;;;;;5.70;2.20;;;;;;;21.30;39.78;93908.50;5017223;28;20025;-85
2021/05/30 07:34:00;;;;;;;3.58;1.63;;;;;;;21.66;37.82;93905.38;5010736;28;20042;-84
2021/05/30 07:36:28;;;;;;;4.25;1.55;;;;;;;21.86;35.95;93900.75;5013865;28;20072;-88
2021/05/30 07:38:55;;;;;;;1.98;1.40;;;;;;;22.07;35.16;93889.66;5004734;28;20068;-83
2021/05/30 07:41:20;;;;;;;1.75;1.35;;;;;;;23.02;36.20;93896.56;5004683;28;20073;-84
2021/05/30 07:43:46;;;;;;;3.13;2.13;;;;;;;23.74;34.35;93899.84;5008913;28;20133;-84
2021/05/30 07:46:12;;;;;;;1.95;1.70;;;;;;;24.28;33.52;93882.28;5010942;28;20443;-87
2021/05/30 07:48:38;;;;;;;2.22;1.38;;;;;;;25.38;32.22;93889.22;5004716;28;20064;-87
2021/05/30 07:51:05;;;;;;;1.38;1.20;;;;;;;26.22;31.47;93888.03;5009760;28;20700;-84
2021/05/30 07:53:31;;;;;;;1.33;1.23;;;;;;;26.55;29.53;93888.81;5007085;28;20107;-87
2021/05/30 07:55:56;;;;;;;3.35;1.60;;;;;;;26.45;30.39;93874.09;5010815;28;20140;-86
2021/05/30 07:58:22;;;;;;;2.85;1.40;;;;;;;26.64;29.97;93862.88;5009544;28;20033;-83
2021/05/30 08:00:48;;;;;;;1.40;1.30;;;;;;;26.65;29.01;93858.22;5008531;28;20127;-84
2021/05/30 08:03:15;;;;;;;2.92;1.33;;;;;;;26.84;29.21;93879.50;5007581;28;20106;-86
2021/05/30 08:05:41;;;;;;;2.35;1.83;;;;;;;26.90;28.90;93877.22;5009252;28;20034;-86
2021/05/30 08:08:06;;;;;;;2.63;1.52;;;;;;;26.78;29.04;93867.50;5014973;28;20402;-85
2021/05/30 08:10:32;;;;;;;2.83;1.80;;;;;;;26.94;28.77;93875.25;5013139;28;20034;-87
2021/05/30 08:12:57;;;;;;;3.03;1.60;;;;;;;27.09;29.29;93876.78;5013967;28;20095;-87
2021/05/30 08:15:23;;;;;;;3.80;1.45;;;;;;;27.44;27.90;93870.50;5012636;28;20518;-84
2021/05/30 08:17:51;;;;;;;3.20;1.00;;;;;;;27.65;27.59;93873.19;5008234;28;20483;-88
2021/05/30 08:20:18;;;;;;;2.72;1.42;;;;;;;27.60;28.10;93860.00;5010185;28;20487;-82
2021/05/30 08:22:43;;;;;;;2.38;1.30;;;;;;;28.29;28.05;93865.47;5011345;28;20038;-88
2021/05/30 08:25:09;;;;;;;3.13;1.10;;;;;;;27.93;26.53;93845.88;5014245;28;20125;-87
2021/05/30 08:27:35;;;;;;;3.10;1.40;;;;;;;28.46;27.11;93868.44;5013326;28;20265;-86
2021/05/30 08:30:01;;;;;;;2.72;1.50;;;;;;;28.48;26.58;93856.03;5009596;28;20038;-90
2021/05/30 08:32:26;;;;;;;1.25;1.15;;;;;;;28.91;26.59;93855.69;4992671;28;20045;-85
2021/05/30 08:34:51;;;;;;;1.48;1.10;;;;;;;29.10;27.62;93855.09;5012604;28;20029;-88
2021/05/30 08:37:18;;;;;;;2.90;1.20;;;;;;;29.17;26.76;93858.53;4999411;28;20029;-83
2021/05/30 08:39:46;;;;;;;3.78;1.33;;;;;;;29.16;26.41;93858.94;4999359;28;20057;-88
2021/05/30 08:42:13;;;;;;;3.58;1.42;;;;;;;28.81;25.86;93863.53;4992276;28;20104;-88
2021/05/30 08:44:39;;;;;;;1.58;1.30;;;;;;;28.55;27.21;93869.53;4996440;28;20046;-91
2021/05/30 08:47:05;;;;;;;4.53;1.88;;;;;;;28.53;26.66;93869.19;4997911;28;20623;-85
2021/05/30 08:49:31;;;;;;;2.70;1.60;;;;;;;28.75;26.18;93859.69;5002250;28;20394;-85
2021/05/30 08:51:56;;;;;;;2.38;1.20;;;;;;;28.37;27.03;93860.75;4996820;28;20042;-84
2021/05/30 08:54:22;;;;;;;3.33;1.77;;;;;;;28.09;27.55;93866.34;4993112;28;20052;-91
2021/05/30 08:56:48;;;;;;;2.05;1.65;;;;;;;28.11;27.96;93866.72;4952898;28;20076;-84
2021/05/30 08:59:27;;;;;;;3.65;1.50;;;;;;;27.68;27.23;93858.78;4991340;28;20053;-85
2021/05/30 09:01:53;;;;;;;4.45;2.30;;;;;;;27.79;29.09;93854.09;4987544;28;21013;-88
2021/05/30 09:04:29;;;;;;;2.58;1.45;;;;;;;27.84;27.60;93853.69;4989548;28;20592;-85
2021/05/30 09:06:57;;;;;;;7.95;2.03;;;;;;;27.68;28.56;93853.38;4975497;28;20053;-83
2021/05/30 09:09:23;;;;;;;5.90;1.45;;;;;;;27.75;28.21;93853.34;5004798;28;20171;-84
2021/05/30 09:11:51;;;;;;;7.85;1.48;;;;;;;27.52;29.08;93869.31;4993358;28;20457;-83
2021/05/30 09:14:20;;;;;;;5.70;1.52;;;;;;;27.60;29.64;93873.59;4974266;28;20068;-89
2021/05/30 09:16:54;;;;;;;7.22;1.42;;;;;;;27.24;29.25;93866.69;4992524;28;20032;-85
2021/05/30 09:19:44;;;;;;;2.38;1.83;;;;;;;26.77;30.19;93865.97;4993185;28;20083;-86
2021/05/30 09:22:22;;;;;;;3.13;1.10;;;;;;;26.73;28.87;93865.97;4990532;28;20505;-86
2021/05/30 09:24:51;;;;;;;1.65;1.40;;;;;;;26.16;30.03;93870.56;4979370;28;20247;-84
2021/05/30 09:27:21;;;;;;;6.65;1.88;;;;;;;26.43;30.05;93856.69;4990395;28;20145;-89
2021/05/30 09:30:07;;;;;;;5.60;1.90;;;;;;;26.04;30.69;93854.69;4993114;28;20972;-89
2021/05/30 09:32:52;;;;;;;5.13;1.85;;;;;;;26.06;31.00;93860.47;4990542;28;20395;-88
2021/05/30 09:35:17;;;;;;;5.68;1.63;;;;;;;26.10;31.02;93855.06;4992899;28;20042;-87
2021/05/30 09:37:43;;;;;;;3.60;1.90;;;;;;;25.94;31.41;93847.31;4988711;28;20099;-84
2021/05/30 09:40:09;;;;;;;1.65;1.40;;;;;;;26.08;31.09;93847.34;4973521;28;20066;-87
2021/05/30 09:42:38;;;;;;;6.32;1.98;;;;;;;26.01;30.21;93836.50;4986651;28;20542;-86
2021/05/30 09:45:06;;;;;;;1.90;1.80;;;;;;;26.09;31.27;93832.66;4984688;28;20121;-86
2021/05/30 09:47:41;;;;;;;6.80;1.90;;;;;;;26.20;30.82;93838.84;4977770;28;20046;-88
2021/05/30 09:50:09;;;;;;;3.97;2.50;;;;;;;26.04;30.61;93835.75;4991096;28;20034;-86
2021/05/30 09:52:39;;;;;;;5.57;1.50;;;;;;;25.92;30.79;93840.72;4989867;28;20217;-88
2021/05/30 09:55:23;;;;;;;3.53;2.03;;;;;;;25.94;30.71;93839.19;4992404;28;21177;-84
2021/05/30 09:58:18;;;;;;;2.10;1.60;;;;;;;25.67;31.19;93827.13;4970954;28;20483;-82
2021/05/30 10:01:00;;;;;;;3.97;1.83;;;;;;;25.46;31.44;93827.84;4989532;28;20042;-89
2021/05/30 10:03:27;;;;;;;3.28;1.75;;;;;;;25.51;30.98;93819.31;4991466;28;20830;-86
2021/05/30 10:05:53;;;;;;;1.60;1.50;;;;;;;25.24;30.86;93807.25;4999458;28;20328;-90
2021/05/30 10:08:20;;;;;;;4.60;1.80;;;;;;;25.37;32.78;93790.28;4992926;28;20139;-84
2021/05/30 10:10:46;;;;;;;2.50;1.63;;;;;;;25.28;31.17;93810.75;4992530;28;20816;-86
2021/05/30 10:13:13;;;;;;;4.43;1.95;;;;;;;25.30;32.84;93809.22;4994636;28;20045;-87
2021/05/30 10:15:39;;;;;;;2.30;1.70;;;;;;;25.50;31.85;93803.47;4991498;28;20113;-82
2021/05/30 10:18:10;;;;;;;2.72;1.60;;;;;;;25.45;31.09;93789.19;4991309;28;20041;-86
2021/05/30 10:20:39;;;;;;;5.03;1.73;;;;;;;25.48;31.89;93786.84;4995322;28;20391;-82
2021/05/30 10:23:07;;;;;;;4.50;2.00;;;;;;;25.65;31.96;93792.34;4992964;28;20042;-91
2021/05/30 10:25:35;;;;;;;2.25;1.92;;;;;;;25.35;30.39;93789.91;4995678;28;20030;-87
2021/05/30 10:28:15;;;;;;;3.17;2.35;;;;;;;25.12;31.96;93772.44;4989148;28;20732;-88
2021/05/30 10:30:44;;;;;;;5.10;1.60;;;;;;;25.28;31.65;93791.81;4991996;28;20045;-87
2021/05/30 10:33:15;;;;;;;1.98;1.88;;;;;;;25.30;31.44;93793.00;4988912;28;20041;-83
2021/05/30 10:35:43;;;;;;;3.17;1.58;;;;;;;25.34;30.91;93785.66;4982582;28;20596;-88
2021/05/30 10:38:10;;;;;;;2.60;1.77;;;;;;;24.75;31.51;93764.50;4976056;28;20506;-91
2021/05/30 10:40:43;;;;;;;3.03;1.73;;;;;;;25.14;33.25;93786.34;4991992;28;20022;-86
2021/05/30 10:43:11;;;;;;;4.97;1.70;;;;;;;24.96;31.79;93791.69;4991559;28;20025;-85
2021/05/30 10:45:43;;;;;;;2.38;2.10;;;;;;;24.86;31.13;93784.25;4991501;28;20049;-86
2021/05/30 10:48:19;;;;;;;3.28;1.73;;;;;;;25.11;31.29;93790.59;4992116;28;20038;-89
2021/05/30 10:50:56;;;;;;;2.08;1.88;;;;;;;25.22;32.44;93785.97;4996028;28;20038;-88
2021/05/30 10:53:38;;;;;;;2.83;1.90;;;;;;;25.54;32.37;93785.31;4990948;28;20414;-88
2021/05/30 10:56:34;;;;;;;2.22;2.00;;;;;;;25.15;30.95;93790.59;4995266;28;20129;-88
2021/05/30 10:59:06;;;;;;;4.75;2.17;;;;;;;25.34;32.42;93782.94;4994342;28;20107;-86
2021/05/30 11:01:38;;;;;;;3.90;1.67;;;;;;;25.51;33.63;93780.69;4995738;28;20088;-86
2021/05/30 11:04:31;;;;;;;7.22;2.15;;;;;;;25.53;33.28;93781.06;4990800;28;20064;-87
2021/05/30 11:07:13;;;;;;;5.25;2.35;;;;;;;25.40;34.43;93772.53;4996038;28;20093;-84
2021/05/30 11:09:52;;;;;;;2.60;2.15;;;;;;;25.41;34.72;93793.78;4995202;28;20042;-83
2021/05/30 11:12:22;;;;;;;8.88;2.40;;;;;;;25.37;33.64;93795.69;4992468;28;20042;-93
2021/05/30 11:15:06;;;;;;;3.33;2.13;;;;;;;25.37;33.21;93798.41;4990061;28;20038;-87
2021/05/30 11:17:39;;;;;;;3.75;2.33;;;;;;;25.25;33.48;93796.06;4992999;28;20045;-87
2021/05/30 11:20:07;;;;;;;6.55;2.80;;;;;;;25.23;33.70;93792.94;4988926;28;20532;-86
2021/05/30 11:22:48;;;;;;;4.80;2.20;;;;;;;25.45;32.99;93789.19;4992226;28;20487;-86
2021/05/30 11:25:22;;;;;;;2.83;1.90;;;;;;;25.25;34.11;93793.34;4993713;28;20026;-84
2021/05/30 11:27:49;;;;;;;;;;;;;;;25.45;35.32;93791.88;4994492;28;20075;-88
2021/05/30 11:30:53;;;;;;;4.00;2.40;;;;;;;25.30;35.00;93786.81;4992668;28;19945;-86
2021/05/30 11:33:22;;;;;;;2.85;2.05;;;;;;;25.38;33.25;93789.13;4983577;28;20038;-89
2021/05/30 11:35:55;;;;;;;3.22;2.42;;;;;;;25.33;33.29;93786.03;4990870;28;20198;-92
2021/05/30 11:38:42;;;;;;;8.75;2.53;;;;;;;25.48;33.60;93781.44;4989128;28;20038;-88
2021/05/30 11:41:16;;;;;;;4.35;2.42;;;;;;;25.35;32.77;93789.13;4991716;28;20662;-85
2021/05/30 11:43:55;;;;;;;4.45;2.20;;;;;;;25.34;33.70;93793.00;4991217;28;20502;-88
2021/05/30 11:46:21;;;;;;;6.22;2.60;;;;;;;25.38;33.27;93788.38;4994442;28;20030;-89
2021/05/30 11:48:58;;;;;;;2.35;2.15;;;;;;;25.34;32.99;93799.19;4990801;28;20060;-87
2021/05/30 11:51:24;;;;;;;2.88;2.17;;;;;;;25.48;33.64;93792.25;4989784;28;21227;-85
2021/05/30 11:53:50;;;;;;;4.35;2.55;;;;;;;25.47;33.26;93788.78;4991437;28;21054;-90
2021/05/30 11:56:15;;;;;;;3.70;2.47;;;;;;;25.51;32.44;93791.50;4991043;28;20474;-87
2021/05/30 11:58:47;;;;;;;3.67;2.30;;;;;;;25.42;33.57;93781.81;4995546;28;20029;-88
2021/05/30 12:01:12;;;;;;;2.85;2.13;;;;;;;25.23;33.78;93792.94;4995550;28;20053;-84
2021/05/30 12:03:50;;;;;;;2.42;2.10;;;;;;;25.44;34.02;93792.25;5006120;28;20042;-87
2021/05/30 12:06:15;;;;;;;2.60;2.38;;;;;;;25.51;34.29;93794.22;4994084;28;20038;-82
2021/05/30 12:08:54;;;;;;;2.78;2.33;;;;;;;25.37;33.69;93787.59;4997288;28;20060;-87
2021/05/30 12:11:19;;;;;;;4.38;2.25;;;;;;;25.36;33.68;93793.41;4992787;28;20503;-86
2021/05/30 12:13:44;;;;;;;3.47;2.10;;;;;;;25.27;34.11;93793.72;4995980;28;20069;-84
2021/05/30 12:16:18;;;;;;;5.13;2.47;;;;;;;25.11;33.67;93779.00;5001348;28;20033;-89
2021/05/30 12:18:55;;;;;;;3.65;2.20;;;;;;;24.69;34.12;93791.09;4992520;28;20038;-85
2021/05/30 12:21:22;;;;;;;8.07;2.65;;;;;;;24.67;35.34;93787.25;4997111;28;20133;-88
2021/05/30 12:23:49;;;;;;;5.93;2.10;;;;;;;24.88;35.19;93788.16;4987695;28;20481;-88
2021/05/30 12:26:15;;;;;;;2.60;2.38;;;;;;;24.95;34.43;93790.13;4988796;28;20099;-86
2021/05/30 12:28:41;;;;;;;3.97;2.33;;;;;;;24.75;34.75;93786.13;4980950;28;20107;-90
2021/05/30 12:31:08;;;;;;;2.80;2.00;;;;;;;24.72;33.14;93793.06;4995915;28;20374;-89
2021/05/30 12:34:02;;;;;;;2.30;1.98;;;;;;;24.77;34.18;93781.91;4982227;28;20790;-86
2021/05/30 12:36:38;;;;;;;4.30;2.00;;;;;;;24.79;33.85;93784.22;4987787;28;20084;-87
2021/05/30 12:39:05;;;;;;;5.35;2.60;;;;;;;24.95;33.76;93777.38;4998429;28;20096;-85
2021/05/30 12:41:38;;;;;;;6.40;3.00;;;;;;;24.86;33.30;93779.63;4997171;28;20065;-84
2021/05/30 12:44:10;;;;;;;2.22;1.98;;;;;;;24.57;33.56;93767.91;4997992;28;20038;-86
2021/05/30 12:46:37;;;;;;;4.05;2.28;;;;;;;24.28;34.55;93778.88;4996086;28;20033;-84
2021/05/30 12:49:11;;;;;;;4.53;2.38;;;;;;;24.08;34.09;93770.22;4984367;28;20180;-84
2021/05/30 12:51:37;;;;;;;2.78;2.58;;;;;;;23.85;34.82;93772.34;4981798;28;20349;-88
2021/05/30 12:54:16;;;;;;;5.63;3.05;;;;;;;23.91;35.69;93773.53;4974612;28;20124;-84
2021/05/30 12:56:47;;;;;;;5.60;2.88;;;;;;;23.54;36.39;93762.78;4967930;28;20565;-88
2021/05/30 12:59:13;;;;;;;3.78;3.00;;;;;;;23.61;36.20;93774.41;4975566;28;20049;-88
2021/05/30 13:01:42;;;;;;;4.35;3.28;;;;;;;23.58;36.99;93761.66;4990484;28;20561;-84
2021/05/30 13:04:43;;;;;;;7.13;3.28;;;;;;;23.43;36.68;93775.34;4992753;28;20022;-85
2021/05/30 13:07:12;;;;;;;9.98;3.80;;;;;;;23.21;38.01;93771.66;4973442;28;20663;-82
2021/05/30 13:09:49;;;;;;;8.75;3.55;;;;;;;23.17;37.78;93771.59;4990457;28;20042;-85
2021/05/30 13:12:37;;;;;;;12.30;4.45;;;;;;;23.19;38.63;93772.03;4992212;28;20162;-90
2021/05/30 13:15:04;;;;;;;6.78;4.47;;;;;;;23.08;38.02;93764.94;4992708;28;20606;-86
2021/05/30 13:17:32;;;;;;;4.97;4.10;;;;;;;22.93;38.78;93774.00;4993450;28;20041;-86
2021/05/30 13:20:00;;;;;;;4.97;4.32;;;;;;;22.87;38.54;93779.72;4988398;28;20048;-88
2021/05/30 13:22:26;;;;;;;7.28;3.63;;;;;;;22.78;37.98;93786.50;4997581;28;20405;-86
2021/05/30 13:24:52;;;;;;;6.80;4.40;;;;;;;22.53;39.32;93766.53;4993475;28;20030;-87
2021/05/30 13:27:28;;;;;;;15.38;4.47;;;;;;;22.84;39.46;93793.13;4993106;28;20898;-88
2021/05/30 13:30:05;;;;;;;4.57;4.18;;;;;;;22.68;39.21;93782.50;4992530;28;20038;-85
2021/05/30 13:32:30;;;;;;;6.60;4.45;;;;;;;22.46;38.83;93799.53;4992236;28;20457;-87
2021/05/30 13:34:56;;;;;;;5.43;4.93;;;;;;;22.34;39.37;93781.66;4990661;28;20100;-86
2021/05/30 13:37:21;;;;;;;6.85;5.03;;;;;;;21.94;40.16;93789.50;4994640;28;21057;-84
2021/05/30 13:39:47;;;;;;;5.97;5.47;;;;;;;21.76;41.45;93791.84;4993962;28;20044;-88
2021/05/30 13:42:12;;;;;;;6.72;5.80;;;;;;;21.73;42.70;93795.25;4974661;28;20046;-86
2021/05/30 13:44:38;;;;;;;7.55;5.95;;;;;;;21.60;43.46;93796.53;4982789;28;20052;-89
2021/05/30 13:47:04;;;;;;;6.43;5.28;;;;;;;21.35;43.72;93796.13;4997772;28;20044;-85
2021/05/30 13:49:29;;;;;;;6.28;5.65;;;;;;;21.15;43.27;93803.41;4999374;28;20379;-81
2021/05/30 13:51:54;;;;;;;6.68;5.97;;;;;;;20.99;43.64;93799.97;4994516;28;20908;-83
2021/05/30 13:54:20;;;;;;;7.32;6.57;;;;;;;20.97;44.30;93802.22;4996625;28;20519;-85
2021/05/30 13:56:45;;;;;;;6.78;6.18;;;;;;;20.80;45.67;93808.03;4987821;28;20045;-86
2021/05/30 13:59:11;;;;;;;7.25;6.65;;;;;;;20.63;45.79;93824.50;4975274;28;20465;-87
2021/05/30 14:01:36;;;;;;;7.07;6.38;;;;;;;20.25;46.07;93825.16;4993518;28;20145;-85
2021/05/30 14:04:02;;;;;;;7.25;6.55;;;;;;;19.92;46.80;93822.84;4997011;28;20040;-87
2021/05/30 14:06:27;;;;;;;7.13;6.53;;;;;;;19.79;46.53;93824.06;4979694;28;20394;-87
2021/05/30 14:08:56;;;;;;;9.25;7.25;;;;;;;19.66;47.11;93830.59;4988188;28;20034;-86
2021/05/30 14:11:24;;;;;;;12.55;7.38;;;;;;;19.51;47.41;93823.31;4996411;28;20533;-92
2021/05/30 14:13:50;;;;;;;8.07;7.15;;;;;;;19.28;47.90;93823.84;4997075;28;20022;-85
2021/05/30 14:16:15;;;;;;;7.90;7.10;;;;;;;19.26;48.33;93831.44;4998466;28;20037;-85
2021/05/30 14:18:41;;;;;;;8.48;7.70;;;;;;;19.12;48.83;93827.59;4994423;28;20444;-87
2021/05/30 14:21:06;;;;;;;7.32;6.22;;;;;;;19.02;48.39;93836.88;4995309;28;20041;-88
2021/05/30 14:23:32;;;;;;;7.80;6.50;;;;;;;18.82;49.66;93833.25;4993353;28;20759;-85
2021/05/30 14:25:58;;;;;;;7.00;6.30;;;;;;;18.82;50.93;93840.50;4991610;28;20042;-86
2021/05/30 14:28:23;;;;;;;8.43;7.47;;;;;;;18.49;51.75;93833.41;4977867;28;20652;-89
2021/05/30 14:30:48;;;;;;;8.68;7.10;;;;;;;18.46;52.95;93844.81;4975549;28;20034;-85
2021/05/30 14:33:14;;;;;;;7.78;7.18;;;;;;;18.38;53.52;93832.28;4987715;28;20041;-85
2021/05/30 14:35:39;;;;;;;8.70;7.80;;;;;;;18.53;54.77;93841.53;4992960;28;20824;-86
2021/05/30 14:38:05;;;;;;;8.40;7.60;;;;;;;18.42;54.55;93859.94;4996423;28;20116;-84
2021/05/30 14:40:31;;;;;;;13.48;8.20;;;;;;;18.18;55.32;93835.88;4997429;28;20022;-86
2021/05/30 14:42:56;;;;;;;8.90;8.05;;;;;;;17.93;55.80;93859.16;4986516;28;20100;-86
2021/05/30 14:45:22;;;;;;;9.02;8.13;;;;;;;17.71;56.91;93852.31;4996737;28;20053;-85
2021/05/30 14:47:47;;;;;;;9.93;9.02;;;;;;;17.81;58.10;93858.34;4991238;28;20118;-85
2021/05/30 14:50:13;;;;;;;8.63;7.82;;;;;;;17.43;57.48;93848.66;4991692;28;20029;-87
2021/05/30 14:52:40;;;;;;;8.88;8.07;;;;;;;17.19;58.09;93853.91;4991503;28;20727;-85
2021/05/30 14:55:06;;;;;;;8.43;7.63;;;;;;;16.87;58.64;93869.56;4996013;28;20018;-87
2021/05/30 14:57:31;;;;;;;11.77;9.30;;;;;;;16.86;60.25;93873.31;4966462;28;20037;-83
2021/05/30 14:59:56;;;;;;;10.35;9.27;;;;;;;16.91;60.39;93876.94;4976829;28;20038;-83
2021/05/30 15:02:22;;;;;;;10.40;9.38;;;;;;;16.64;60.61;93870.97;4978471;28;20061;-85
2021/05/30 15:04:47;;;;;;;10.13;9.23;;;;;;;16.60;61.86;93870.06;4994171;28;20474;-86
2021/05/30 15:07:14;;;;;;;9.77;8.90;;;;;;;16.44;61.12;93875.16;4991025;28;20115;-82
2021/05/30 15:09:40;;;;;;;9.20;8.30;;;;;;;16.22;62.38;93874.66;4989379;28;20465;-82
2021/05/30 15:12:06;;;;;;;10.80;9.70;;;;;;;16.33;63.96;93881.94;4987977;28;20038;-85
2021/05/30 15:14:31;;;;;;;10.40;9.43;;;;;;;16.34;64.46;93875.53;4993603;28;20049;-86
2021/05/30 15:16:57;;;;;;;11.27;10.18;;;;;;;16.25;64.47;93868.66;4988535;28;20048;-87
2021/05/30 15:19:22;;;;;;;11.75;9.75;;;;;;;16.21;64.22;93876.53;4994717;28;20034;-84
2021/05/30 15:21:49;;;;;;;9.60;8.70;;;;;;;15.92;63.39;93874.63;4977364;28;20043;-86
2021/05/30 15:24:15;;;;;;;10.88;9.70;;;;;;;15.94;64.70;93876.94;4972923;28;20476;-85
2021/05/30 15:26:41;;;;;;;11.20;10.10;;;;;;;15.92;63.72;93871.97;4972206;28;20046;-87
2021/05/30 15:29:06;;;;;;;10.40;9.38;;;;;;;15.88;64.19;93865.69;4972756;28;20117;-84
2021/05/30 15:31:32;;;;;;;10.57;9.52;;;;;;;15.85;64.42;93869.00;4979072;28;21119;-84
2021/05/30 15:33:59;;;;;;;10.88;9.50;;;;;;;15.62;64.47;93874.88;4971111;28;20042;-84
2021/05/30 15:36:24;;;;;;;10.57;9.50;;;;;;;15.57;65.30;93857.97;4966813;28;20050;-85
2021/05/30 15:38:52;;;;;;;9.82;8.93;;;;;;;15.51;65.01;93869.09;4971338;28;20053;-86
2021/05/30 15:41:19;;;;;;;10.45;9.43;;;;;;;15.36;66.15;93872.22;4965817;28;20038;-85
2021/05/30 15:43:46;;;;;;;9.50;8.60;;;;;;;15.42;65.94;93865.63;4967028;28;20495;-81
2021/05/30 15:46:12;;;;;;;9.93;9.00;;;;;;;15.37;66.14;93868.47;4974476;28;20034;-86
2021/05/30 15:48:38;;;;;;;9.52;8.55;;;;;;;15.34;66.10;93869.09;4971787;28;20267;-85
2021/05/30 15:53:48;;;;;;;10.20;9.20;;;;;;;15.24;66.24;93864.91;4953026;28;20073;-85
2021/05/30 15:56:13;;;;;;;9.38;8.48;;;;;;;15.21;66.57;93870.81;4957976;28;20046;-86
2021/05/30 15:58:38;;;;;;;10.32;9.23;;;;;;;15.06;66.85;93872.09;4975849;28;20104;-85
2021/05/30 16:01:04;;;;;;;12.73;11.43;;;;;;;14.96;66.69;93872.41;4974825;28;20100;-82
2021/05/30 16:03:29;;;;;;;12.43;11.25;;;;;;;14.99;67.29;93866.47;4972442;28;20270;-84
2021/05/30 16:05:55;;;;;;;8.77;7.97;;;;;;;14.88;66.38;93870.53;4972848;28;20043;-88
2021/05/30 16:08:20;;;;;;;9.70;8.75;;;;;;;14.76;66.48;93870.38;4976277;28;20035;-87
2021/05/30 16:10:46;;;;;;;8.77;7.88;;;;;;;14.76;66.00;93865.03;4977310;28;20031;-85
2021/05/30 16:13:11;;;;;;;8.77;7.97;;;;;;;14.37;65.16;93863.28;4978743;28;20042;-87
2021/05/30 16:15:37;;;;;;;9.55;8.65;;;;;;;14.53;67.03;93867.06;4971680;28;20499;-85
2021/05/30 16:18:04;;;;;;;11.30;8.30;;;;;;;14.53;66.40;93864.41;4975594;28;20073;-85
2021/05/30 16:20:29;;;;;;;9.00;8.20;;;;;;;14.62;66.11;93865.19;4976596;28;20873;-83
2021/05/30 16:22:55;;;;;;;8.88;8.18;;;;;;;14.61;64.77;93874.25;4976488;28;20081;-86
2021/05/30 16:25:20;;;;;;;7.40;6.65;;;;;;;14.59;64.58;93865.03;4996102;28;20022;-83
2021/05/30 16:27:46;;;;;;;9.07;7.93;;;;;;;14.47;64.60;93867.50;4987127;28;20057;-86
2021/05/30 16:30:12;;;;;;;9.50;8.48;;;;;;;14.42;66.29;93872.97;5005726;28;20685;-85
2021/05/30 16:32:37;;;;;;;9.20;8.30;;;;;;;14.29;65.47;93851.50;4995568;28;20060;-87
2021/05/30 16:35:03;;;;;;;9.63;8.60;;;;;;;14.40;66.71;93856.56;5000734;28;20610;-85
2021/05/30 16:37:30;;;;;;;9.35;8.13;;;;;;;14.39;64.70;93860.31;4997950;28;20033;-83
2021/05/30 16:39:56;;;;;;;9.43;7.88;;;;;;;14.48;65.06;93863.78;4993020;28;21116;-87
2021/05/30 16:42:21;;;;;;;9.10;8.18;;;;;;;14.38;65.61;93853.41;4995321;28;20042;-85
2021/05/30 16:44:47;;;;;;;8.50;7.70;;;;;;;14.35;65.59;93859.34;4999254;28;20099;-86
2021/05/30 16:47:12;;;;;;;9.00;8.10;;;;;;;14.29;65.07;93859.50;4995673;28;20038;-87
2021/05/30 16:49:38;;;;;;;8.50;7.70;;;;;;;14.11;65.36;93857.09;4991559;28;20111;-86
2021/05/30 16:52:05;;;;;;;8.23;7.43;;;;;;;14.21;65.18;93856.81;4996817;28;20022;-86
2021/05/30 16:54:31;;;;;;;12.23;8.00;;;;;;;14.19;65.85;93856.31;4994786;28;20120;-85
2021/05/30 16:56:56;;;;;;;9.05;8.15;;;;;;;14.03;66.22;93858.63;4997278;28;20037;-84
2021/05/30 16:59:21;;;;;;;10.07;8.60;;;;;;;14.03;67.78;93855.97;4991317;28;20402;-88
2021/05/30 17:01:47;;;;;;;9.73;8.73;;;;;;;14.05;67.10;93861.78;4997241;28;20462;-87
2021/05/30 17:04:17;;;;;;;9.85;8.85;;;;;;;13.92;66.67;93849.38;4992987;28;20046;-85
2021/05/30 17:06:43;;;;;;;9.13;8.07;;;;;;;13.91;66.63;93849.69;4995428;28;20046;-86
2021/05/30 17:09:10;;;;;;;8.48;7.65;;;;;;;14.01;65.78;93850.19;4997068;28;20034;-87
2021/05/30 17:11:38;;;;;;;10.90;8.32;;;;;;;13.97;65.68;93849.25;4992118;28;20593;-85
2021/05/30 17:14:04;;;;;;;11.27;8.68;;;;;;;13.94;66.31;93854.38;4994321;28;20110;-86
2021/05/30 17:16:29;;;;;;;10.57;8.80;;;;;;;13.90;66.82;93854.22;5000142;28;20034;-86
2021/05/30 17:18:55;;;;;;;11.52;8.57;;;;;;;13.84;64.87;93842.94;4994216;28;20048;-85
2021/05/30 17:21:21;;;;;;;9.10;7.43;;;;;;;13.74;64.78;93856.50;4998559;28;20042;-81
2021/05/30 17:23:49;;;;;;;9.00;7.38;;;;;;;13.68;64.53;93851.63;4995032;28;20093;-87
2021/05/30 17:26:14;;;;;;;9.25;6.95;;;;;;;13.78;64.52;93841.50;4997191;28;20046;-87
2021/05/30 17:28:40;;;;;;;8.88;8.02;;;;;;;13.81;64.73;93845.44;4997373;28;20379;-86
2021/05/30 17:31:05;;;;;;;11.05;9.15;;;;;;;13.87;64.27;93849.53;5000347;28;20470;-85
2021/05/30 17:33:32;;;;;;;9.15;8.25;;;;;;;13.85;63.75;93846.38;4999130;28;20034;-81
2021/05/30 17:35:57;;;;;;;9.13;7.78;;;;;;;13.82;62.58;93833.72;4996700;28;20038;-85
2021/05/30 17:38:26;;;;;;;9.60;8.60;;;;;;;13.83;63.15;93837.91;4994439;28;20041;-85
2021/05/30 17:40:51;;;;;;;11.95;9.40;;;;;;;13.80;64.42;93838.53;4997726;28;20030;-87
2021/05/30 17:43:17;;;;;;;9.68;8.65;;;;;;;13.88;64.76;93840.44;5000736;28;20029;-85
2021/05/30 17:45:42;;;;;;;9.65;8.40;;;;;;;13.97;65.19;93854.56;4997835;28;20149;-85
2021/05/30 17:48:08;;;;;;;11.73;7.72;;;;;;;13.93;63.84;93850.94;5000515;28;20026;-84
2021/05/30 17:50:34;;;;;;;10.88;9.38;;;;;;;13.83;64.11;93843.22;4997852;28;20675;-85
2021/05/30 17:53:03;;;;;;;9.80;8.80;;;;;;;13.88;64.52;93848.41;4996510;28;20073;-87
2021/05/30 17:55:28;;;;;;;11.30;10.20;;;;;;;13.96;64.72;93849.53;4999221;28;20132;-85
2021/05/30 17:57:55;;;;;;;11.35;10.05;;;;;;;13.90;64.85;93840.94;4999136;28;20578;-82
2021/05/30 18:00:21;;;;;;;9.63;8.63;;;;;;;13.93;64.66;93842.97;4997594;28;20104;-84
2021/05/30 18:02:47;;;;;;;11.52;8.57;;;;;;;13.97;64.32;93854.56;4997085;28;20496;-85
2021/05/30 18:05:13;;;;;;;11.45;8.98;;;;;;;13.98;64.26;93847.34;4995287;28;20073;-84
2021/05/30 18:08:12;;;;;;;10.32;9.00;;;;;;;13.92;64.91;93849.38;4994701;28;20686;-84
2021/05/30 18:10:24;;;;;;;11.75;10.15;;;;;;;13.92;66.04;93845.94;4999043;28;20029;-85
2021/05/30 18:12:49;;;;;;;11.00;9.90;;;;;;;14.00;67.61;93853.94;4998126;28;20554;-86
2021/05/30 18:15:15;;;;;;;13.02;10.57;;;;;;;14.00;66.48;93851.28;4995740;28;20046;-85
2021/05/30 18:17:43;;;;;;;10.82;9.75;;;;;;;14.01;66.53;93854.72;4994938;28;20133;-84
2021/05/30 18:20:11;;;;;;;12.07;10.30;;;;;;;13.94;65.38;93844.53;4997299;28;20057;-84
2021/05/30 18:22:37;;;;;;;11.48;9.77;;;;;;;13.99;66.32;93862.19;4993199;28;20025;-86
2021/05/30 18:25:03;;;;;;;11.98;10.57;;;;;;;13.73;67.81;93819.63;5001253;28;20098;-84
2021/05/30 18:27:29;;;;;;;12.85;9.98;;;;;;;13.99;67.73;93856.88;4995780;28;20517;-85
2021/05/30 18:29:54;;;;;;;12.93;10.05;;;;;;;13.98;67.67;93861.41;4998788;28;20042;-86
2021/05/30 18:32:20;;;;;;;11.23;9.88;;;;;;;13.96;68.70;93865.47;4996360;28;20498;-85
2021/05/30 18:34:46;;;;;;;13.88;10.40;;;;;;;13.92;68.98;93862.66;4999397;28;20406;-86
2021/05/30 18:37:14;;;;;;;11.95;9.80;;;;;;;14.02;67.31;93877.53;4994235;28;20030;-87
2021/05/30 18:39:40;;;;;;;12.13;10.65;;;;;;;14.00;68.03;93874.41;4998421;28;20533;-87
2021/05/30 18:42:06;;;;;;;10.98;9.60;;;;;;;13.73;69.10;93844.28;4995722;28;20125;-86
2021/05/30 18:44:32;;;;;;;12.93;10.55;;;;;;;13.98;69.00;93880.00;4995205;28;20569;-86
2021/05/30 18:46:57;;;;;;;17.77;14.50;;;;;;;13.95;71.29;93882.50;4996120;28;20132;-86
2021/05/30 18:49:22;;;;;;;9.93;8.88;;;;;;;13.62;67.82;93850.19;4998965;28;20040;-85
2021/05/30 18:51:48;;;;;;;8.68;7.18;;;;;;;13.71;67.98;93881.00;4995612;28;20499;-86
2021/05/30 18:54:13;;;;;;;8.07;7.03;;;;;;;13.74;67.70;93887.56;4984349;28;20040;-85
2021/05/30 18:56:39;;;;;;;9.57;8.05;;;;;;;13.72;69.07;93887.91;4986602;28;20064;-86
2021/05/30 18:59:04;;;;;;;9.80;8.20;;;;;;;13.70;70.25;93876.00;4993684;28;20124;-86
2021/05/30 19:01:30;;;;;;;11.60;8.63;;;;;;;13.68;70.06;93888.81;4999859;28;20022;-85